Flight Track Log - Related Links

Times and Time Zones

All times are in EDT time to prevent confusion due to time zone crossing. See the AAL1653 flight status page for this flight to view local times or setup timezone preferences in your user account.

Time Position Orientation Groundspeed Altitude Reporting Facility
EDT Latitude Longitude Course Direction KTS MPH feet Rate Location/Type
Wed 02:36:02 PM 35.8708 -78.8089 180° South 154 177 1,400  Level Washington Center
Wed 02:36:44 PM 35.8450 -78.8361 221° Southwest 162 186 2,600 1,846 Climbing Washington Center
Wed 02:37:20 PM 35.8378 -78.8717 256° West 211 243 3,800 2,500 Climbing Washington Center
Wed 02:38:00 PM 35.8422 -79.1597 265° West  Level FlightAware Approximate
Wed 02:38:20 PM 35.8375 -78.9561 270° West 221 254 6,600  Level Washington Center
Wed 02:39:00 PM 35.8333 -79.2858 270° West  Level FlightAware Approximate
Wed 02:39:20 PM 35.8414 -79.0408 273° West 241 277 9,500  Level Washington Center
Wed 02:40:00 PM 35.8210 -79.4114 262° West  Level FlightAware Approximate
Wed 02:40:20 PM 35.8389 -79.1253 268° West 266 306 11,100  Level Washington Center
Wed 02:41:00 PM 35.8132 -79.5333 180° South  Level FlightAware Approximate
Wed 02:42:05 PM 35.8328 -79.3439 268° West 352 405 15,600  Level Atlanta Center
Wed 02:43:05 PM 35.8228 -79.4647 264° West 359 413 17,900 2,200 Climbing Atlanta Center
Wed 02:44:05 PM 35.8086 -79.5883 262° West 364 419 20,000 1,950 Climbing Atlanta Center
Wed 02:45:05 PM 35.7894 -79.6944 257° West 364 419 21,800 1,650 Climbing Atlanta Center
Wed 02:46:05 PM 35.7669 -79.8261 258° West 377 434 23,300 1,650 Climbing Atlanta Center
Wed 02:47:05 PM 35.7386 -79.9733 257° West 399 459 25,100 1,550 Climbing Atlanta Center
Wed 02:48:05 PM 35.7158 -80.1103 258° West 404 465 26,400 1,350 Climbing Atlanta Center
Wed 02:49:05 PM 35.6911 -80.2494 258° West 410 472 27,800 800 Climbing Atlanta Center
Wed 02:50:05 PM 35.6683 -80.3911 259° West 425 489 28,000 100 Climbing Atlanta Center
Wed 02:51:05 PM 35.6722 -80.5264 272° West 404 465 28,000 450 Level Atlanta Center
Wed 02:52:05 PM 35.7361 -80.6489 303° West 398 458 28,900 1,350 Climbing Atlanta Center
Wed 02:53:05 PM 35.7936 -80.7669 301° West 404 465 30,700 1,550 Climbing Atlanta Center
Wed 02:54:05 PM 35.8531 -80.8850 302° West 404 465 32,000 433 Climbing Atlanta Center
Wed 02:56:05 PM 35.9672 -81.1192 301° West 399 459 32,000 333 Level Atlanta Center
Wed 02:57:05 PM 36.0222 -81.2378 300° West 394 453 33,000 1,000 Climbing Atlanta Center
Wed 02:58:05 PM 36.0747 -81.3517 300° West 394 453 34,000 500 Climbing Atlanta Center
Wed 02:59:05 PM 36.1314 -81.4653 302° West 389 448 34,000  Level Atlanta Center
Wed 03:00:05 PM 36.1839 -81.5819 299° West 389 448 34,000  Level Atlanta Center
Wed 03:01:05 PM 36.2383 -81.6989 300° West 387 445 34,000  Level Atlanta Center
Wed 03:02:05 PM 36.2925 -81.8131 301° West 387 445 34,000  Level Atlanta Center
Wed 03:03:05 PM 36.3447 -81.9278 299° West 382 440 34,000  Level Atlanta Center
Wed 03:04:05 PM 36.3986 -82.0450 300° West 382 440 34,000  Level Atlanta Center
Wed 03:05:05 PM 36.4631 -82.1517 307° West 382 440 34,000  Level Atlanta Center
Wed 03:07:02 PM 36.6283 -82.3081 323° Northwest 405 466 34,000  Level Indianapolis Center
Wed 03:08:03 PM 36.7158 -82.3922 322° Northwest 400 460 34,000  Level Indianapolis Center
Wed 03:09:05 PM 36.8217 -82.4933 323° Northwest 411 473 34,000  Level Indianapolis Center
Wed 03:10:07 PM 36.9103 -82.5778 323° Northwest 405 466 34,000  Level Indianapolis Center
Wed 03:11:09 PM 36.9992 -82.6644 322° Northwest 410 472 34,000  Level Indianapolis Center
Wed 03:12:11 PM 37.0889 -82.7506 323° Northwest 411 473 34,000  Level Indianapolis Center
Wed 03:13:13 PM 37.1939 -82.8522 322° Northwest 413 475 34,000  Level Indianapolis Center
Wed 03:14:15 PM 37.2833 -82.9411 322° Northwest 413 475 34,000  Level Indianapolis Center
Wed 03:15:17 PM 37.3733 -83.0306 322° Northwest 413 475 34,000  Level Indianapolis Center
Wed 03:16:19 PM 37.4639 -83.1186 322° Northwest 414 476 34,000  Level Indianapolis Center
Wed 03:17:21 PM 37.5539 -83.2078 322° Northwest 412 474 34,000  Level Indianapolis Center
Wed 03:18:23 PM 37.6578 -83.3108 322° Northwest 408 470 34,000  Level Indianapolis Center
Wed 03:19:25 PM 37.7461 -83.3975 322° Northwest 405 466 34,000  Level Indianapolis Center
Wed 03:20:27 PM 37.8333 -83.4853 322° Northwest 403 464 34,000  Level Indianapolis Center
Wed 03:21:29 PM 37.9228 -83.5719 323° Northwest 405 466 34,000  Level Indianapolis Center
Wed 03:22:31 PM 38.0114 -83.6619 321° Northwest 408 470 34,000  Level Indianapolis Center
Wed 03:23:33 PM 38.1144 -83.7647 322° Northwest 404 465 34,000  Level Indianapolis Center
Wed 03:24:35 PM 38.2053 -83.8547 322° Northwest 413 475 34,000  Level Indianapolis Center
Wed 03:25:37 PM 38.3017 -83.9375 326° Northwest 419 482 34,000  Level Indianapolis Center
Wed 03:26:39 PM 38.4022 -84.0131 330° Northwest 420 483 34,000  Level Indianapolis Center
Wed 03:27:41 PM 38.5006 -84.0906 328° Northwest 418 481 34,000  Level Indianapolis Center
Wed 03:28:43 PM 38.6183 -84.1819 329° Northwest 422 486 34,000 -48 Level Indianapolis Center
Wed 03:29:45 PM 38.7239 -84.2642 329° Northwest 428 493 33,900  Descending Indianapolis Center
Wed 03:30:47 PM 38.8247 -84.3400 330° Northwest 419 482 34,000  Climbing Indianapolis Center
Wed 03:31:49 PM 38.9222 -84.4200 327° Northwest 412 474 33,900 -677 Descending Indianapolis Center
Wed 03:32:51 PM 39.0197 -84.4950 329° Northwest 402 463 32,600 -1,597 Descending Indianapolis Center
Wed 03:33:53 PM 39.1197 -84.5744 328° Northwest 416 479 30,600 -1,694 Descending Indianapolis Center
Wed 03:34:55 PM 39.2203 -84.6525 329° Northwest 417 480 29,100 -1,258 Descending Indianapolis Center
Wed 03:35:57 PM 39.3194 -84.7297 329° Northwest 413 475 28,000 -581 Descending Indianapolis Center
Wed 03:36:59 PM 39.4197 -84.8089 329° Northwest 416 479 27,900  Descending Indianapolis Center
Wed 03:38:01 PM 39.5319 -84.8981 329° Northwest 420 483 28,000 48 Climbing Indianapolis Center
Wed 03:39:03 PM 39.6322 -84.9778 329° Northwest 421 484 28,000  Level Indianapolis Center
Wed 03:40:05 PM 39.7325 -85.0581 328° Northwest 420 483 28,000  Level Indianapolis Center
Wed 03:41:07 PM 39.8328 -85.1386 328° Northwest 421 484 28,000 -677 Level Indianapolis Center
Wed 03:42:09 PM 39.9500 -85.2314 329° Northwest 422 486 26,600 -968 Descending Indianapolis Center
Wed 03:43:11 PM 40.0467 -85.3103 328° Northwest 412 474 26,000 -290 Descending Indianapolis Center
Wed 03:44:13 PM 40.1431 -85.3894 328° Northwest 408 470 26,000  Level Indianapolis Center
Wed 03:45:15 PM 40.2403 -85.4686 328° Northwest 409 471 26,000 -242 Level Indianapolis Center
Wed 03:46:17 PM 40.3381 -85.5494 328° Northwest 412 474 25,500 -629 Descending Indianapolis Center
Wed 03:47:19 PM 40.4331 -85.6264 328° Northwest 403 464 24,700 -726 Descending Indianapolis Center
Wed 03:48:21 PM 40.5494 -85.7064 332° Northwest 405 466 24,000 -871 Descending Indianapolis Center
Wed 03:49:23 PM 40.6564 -85.7536 341° North 404 465 22,900 -896 Descending Indianapolis Center
Wed 03:50:35 PM 40.7853 -85.8106 342° North 399 459 22,000 -403 Descending Chicago Center
Wed 03:51:37 PM 40.8783 -85.8711 334° Northwest 378 435 22,000  Level Chicago Center
Wed 03:52:39 PM 40.9550 -85.9586 319° Northwest 365 420 22,000  Level Chicago Center
Wed 03:53:41 PM 41.0314 -86.0481 319° Northwest 366 421 22,000  Level Chicago Center
Wed 03:54:43 PM 41.1083 -86.1397 318° Northwest 370 426 22,000 -387 Level Chicago Center
Wed 03:55:45 PM 41.1867 -86.2294 319° Northwest 370 426 21,200 -1,065 Descending Chicago Center
Wed 03:56:47 PM 41.2608 -86.3197 318° Northwest 362 417 19,800 -1,597 Descending Chicago Center
Wed 03:57:49 PM 41.3508 -86.4239 319° Northwest 360 414 17,900 -1,548 Descending Chicago Center
Wed 03:58:51 PM 41.4231 -86.5103 318° Northwest 352 405 16,600 -1,258 Descending Chicago Center
Wed 03:59:53 PM 41.4914 -86.5922 318° Northwest 336 387 15,300 -1,299 Descending Chicago Center
Wed 04:01:28 PM 41.6000 -86.7167 319° Northwest 318 366 13,200 -1,248 Descending Chicago TRACON
Wed 04:01:58 PM 41.6239 -86.7503 314° West 316 364 12,700 -1,043 Descending Chicago Center
Wed 04:03:00 PM 41.7228 -86.8003 339° North 331 381 11,600 -816 Descending Chicago Center
Wed 04:04:03 PM 41.8106 -86.8153 353° North 322 371 11,000 -336 Descending Chicago Center
Wed 04:05:05 PM 41.8828 -86.8442 343° North 282 325 10,900 -435 Descending Chicago Center
Wed 04:06:07 PM 41.9292 -86.9381 304° West 304 350 10,100 -484 Descending Chicago Center
Wed 04:07:09 PM 41.9672 -87.0406 297° West 309 356 9,900 -677 Descending Chicago Center
Wed 04:08:11 PM 41.9850 -87.1572 282° West 275 316 8,700 -1,258 Descending Chicago Center
Wed 04:09:13 PM 41.9836 -87.2517 269° West 258 297 7,300 -823 Descending Chicago Center
Wed 04:10:15 PM 41.9831 -87.3494 270° West 261 300 7,000 -145 Descending Chicago Center
Wed 04:11:17 PM 41.9822 -87.4428 269° West 254 292 7,000 -290 Level Chicago Center
Wed 04:12:19 PM 41.9831 -87.5328 271° West 245 282 6,400 -1,161 Descending Chicago Center
Wed 04:13:21 PM 41.9836 -87.6375 270° West 240 276 4,600 -1,452 Descending Chicago Center
Wed 04:14:23 PM 41.9847 -87.7156 271° West 229 264 3,400 -1,161 Descending Chicago Center

Login

Don't have an account? Register now (free) for customized features, flight alerts, and more!